Time;durP1;ratioP1;P1;durP2;ratioP2;P2;SDS_P1;SDS_P2;PMS_P1;PMS_P2;Temp;Humidity;BMP_temperature;BMP_pressure;BME280_temperature;BME280_humidity;BME280_pressure;Samples;Min_cycle;Max_cycle;Signal;HPM_P1;HPM_P2
2023/03/03 00:01:06;;;;;;;1999.90;999.90;;;;;;;3.79;100.00;98057.78;5111026;28;20031;-76
2023/03/03 00:03:32;;;;;;;1999.90;999.90;;;;;;;3.91;100.00;98059.56;5110717;28;20448;-76
2023/03/03 00:05:58;;;;;;;1999.90;999.90;;;;;;;3.83;100.00;98070.78;5110511;28;20011;-76
2023/03/03 00:08:23;;;;;;;1999.90;999.90;;;;;;;3.61;100.00;98062.63;5110537;28;20036;-75
2023/03/03 00:10:49;;;;;;;1999.90;999.90;;;;;;;3.54;100.00;98053.91;5110645;28;20019;-75
2023/03/03 00:13:20;;;;;;;1999.90;999.90;;;;;;;3.66;100.00;98062.72;5110700;28;20110;-76
2023/03/03 00:15:46;;;;;;;1999.90;999.90;;;;;;;3.68;100.00;98055.19;5110842;28;20536;-76
2023/03/03 00:18:33;;;;;;;1999.90;999.90;;;;;;;3.76;100.00;98049.34;5110937;28;20030;-76
2023/03/03 00:21:00;;;;;;;1999.90;999.90;;;;;;;3.78;100.00;98052.63;5110636;28;20122;-77
2023/03/03 00:23:37;;;;;;;1999.90;999.90;;;;;;;3.88;100.00;98046.53;5110741;28;20024;-75
2023/03/03 00:26:17;;;;;;;1999.90;999.90;;;;;;;3.90;100.00;98047.09;5110638;28;20104;-74
2023/03/03 00:28:46;;;;;;;1999.90;999.90;;;;;;;3.78;100.00;98041.81;5111069;28;20468;-75
2023/03/03 00:31:20;;;;;;;1999.90;999.90;;;;;;;3.79;100.00;98044.25;5112419;28;20028;-75
2023/03/03 00:33:53;;;;;;;1999.90;999.90;;;;;;;3.79;100.00;98043.41;5112903;28;20447;-76
2023/03/03 00:36:40;;;;;;;1999.90;999.90;;;;;;;3.81;100.00;98037.78;5113170;28;20035;-76
2023/03/03 00:39:27;;;;;;;1999.90;999.90;;;;;;;3.88;100.00;98041.94;5113243;28;20050;-75
2023/03/03 00:41:52;;;;;;;1999.90;999.90;;;;;;;3.77;100.00;98019.34;5111020;28;20027;-78
2023/03/03 00:44:40;;;;;;;1999.90;999.90;;;;;;;3.89;100.00;98034.63;5112595;28;20034;-76
2023/03/03 00:47:28;;;;;;;1999.90;999.90;;;;;;;3.94;100.00;98027.41;5111501;28;20168;-75
2023/03/03 00:50:15;;;;;;;1999.90;999.90;;;;;;;3.86;100.00;98027.00;5113749;28;20034;-75
2023/03/03 00:53:09;;;;;;;1999.90;999.90;;;;;;;3.73;100.00;98025.50;5092614;28;20041;-75
2023/03/03 00:55:35;;;;;;;1999.90;999.90;;;;;;;3.74;100.00;98030.66;5093109;28;20093;-76
2023/03/03 00:58:00;;;;;;;1999.90;999.90;;;;;;;3.69;100.00;98016.25;5094234;28;20027;-75
2023/03/03 01:00:26;;;;;;;1999.90;999.90;;;;;;;3.67;100.00;98021.06;5094656;28;20028;-76
2023/03/03 01:02:51;;;;;;;1999.90;999.90;;;;;;;3.64;100.00;98016.16;5093314;28;20036;-76
2023/03/03 01:05:19;;;;;;;1999.90;999.90;;;;;;;3.61;100.00;98009.38;5093328;28;20024;-75
2023/03/03 01:07:45;;;;;;;1999.90;999.90;;;;;;;3.59;100.00;98005.28;5092957;28;20492;-76
2023/03/03 01:10:11;;;;;;;1999.90;999.90;;;;;;;3.56;100.00;98011.19;5093183;28;20028;-75
2023/03/03 01:12:37;;;;;;;1999.90;999.90;;;;;;;3.47;100.00;97994.59;5093311;28;20028;-75
2023/03/03 01:15:05;;;;;;;1999.90;999.90;;;;;;;3.54;100.00;97997.91;5094085;28;20150;-76
2023/03/03 01:17:31;;;;;;;1999.90;999.90;;;;;;;3.64;100.00;98008.88;5099332;28;20055;-80
2023/03/03 01:19:56;;;;;;;1999.90;999.90;;;;;;;3.55;100.00;97994.16;5096685;28;20036;-77
2023/03/03 01:22:23;;;;;;;1999.90;999.90;;;;;;;3.51;100.00;97987.59;5093961;28;20532;-76
2023/03/03 01:24:48;;;;;;;1999.90;999.90;;;;;;;3.53;100.00;97982.78;5092721;28;20388;-75
2023/03/03 01:27:13;;;;;;;1999.90;999.90;;;;;;;3.56;100.00;97978.75;5091897;28;20099;-74
2023/03/03 01:29:39;;;;;;;1999.90;999.90;;;;;;;3.62;100.00;97980.47;5091299;28;20533;-75
2023/03/03 01:32:04;;;;;;;1999.90;999.90;;;;;;;3.59;100.00;97983.66;5093073;28;20101;-77
2023/03/03 01:34:29;;;;;;;1999.90;999.90;;;;;;;3.60;100.00;97974.50;5092549;28;20022;-75
2023/03/03 01:36:55;;;;;;;1999.90;999.90;;;;;;;3.53;100.00;97971.16;5092561;28;20055;-75
2023/03/03 01:39:20;;;;;;;1999.90;999.90;;;;;;;3.52;100.00;97969.50;5092475;28;20365;-76
2023/03/03 01:41:46;;;;;;;1999.90;999.90;;;;;;;3.43;100.00;97973.69;5092481;28;20074;-76
2023/03/03 01:44:14;;;;;;;1999.90;999.90;;;;;;;3.39;100.00;97959.88;5104705;28;20028;-76
2023/03/03 01:46:53;;;;;;;1999.90;999.90;;;;;;;3.39;100.00;97972.56;5112914;28;20106;-76
2023/03/03 01:49:28;;;;;;;1999.90;999.90;;;;;;;3.42;100.00;97969.34;5112604;28;20030;-75
2023/03/03 01:52:01;;;;;;;1999.90;999.90;;;;;;;3.37;100.00;97958.47;5112687;28;20032;-74
2023/03/03 01:54:37;;;;;;;1999.90;999.90;;;;;;;3.34;100.00;97965.22;5111321;28;20095;-75
2023/03/03 01:57:05;;;;;;;;;;;;;;;3.41;100.00;97948.81;5113010;28;20713;-75
2023/03/03 01:59:39;;;;;;;1999.90;999.90;;;;;;;3.38;100.00;97954.72;5112043;28;20257;-75
2023/03/03 02:02:06;;;;;;;1999.90;999.90;;;;;;;3.49;100.00;97953.78;5113176;28;20472;-76
2023/03/03 02:04:33;;;;;;;1999.90;999.90;;;;;;;3.49;100.00;97945.66;5112629;28;20070;-75
2023/03/03 02:07:03;;;;;;;1999.90;999.90;;;;;;;3.49;100.00;97942.97;5112835;27;20136;-76
2023/03/03 02:09:53;;;;;;;1999.90;999.90;;;;;;;3.46;100.00;97943.47;5112603;28;20067;-74
2023/03/03 02:12:24;;;;;;;1999.90;999.90;;;;;;;3.44;100.00;97942.91;5112357;28;20477;-76
2023/03/03 02:14:50;;;;;;;1999.90;999.90;;;;;;;3.35;100.00;97928.19;5112417;28;20493;-76
2023/03/03 02:17:15;;;;;;;1999.90;999.90;;;;;;;3.27;100.00;97937.53;5112437;28;20024;-77
2023/03/03 02:19:44;;;;;;;1999.90;999.90;;;;;;;3.39;100.00;97940.13;5112473;28;20023;-75
2023/03/03 02:22:10;;;;;;;1999.90;999.90;;;;;;;3.34;100.00;97930.06;5098050;28;20028;-76
2023/03/03 02:24:44;;;;;;;1999.90;999.90;;;;;;;3.40;100.00;97929.06;5084267;28;20451;-76
2023/03/03 02:27:09;;;;;;;1999.90;999.90;;;;;;;3.31;100.00;97927.88;5092358;28;20088;-75
2023/03/03 02:29:35;;;;;;;1999.90;999.90;;;;;;;3.42;100.00;97931.50;5071180;28;20016;-75
2023/03/03 02:32:00;;;;;;;1999.90;999.90;;;;;;;3.41;100.00;97932.59;5071530;28;20024;-75
2023/03/03 02:34:26;;;;;;;1999.90;999.90;;;;;;;3.44;100.00;97935.63;5071042;28;20029;-76
2023/03/03 02:36:51;;;;;;;1999.90;999.90;;;;;;;3.37;100.00;97912.53;5070905;28;20510;-77
2023/03/03 02:39:20;;;;;;;1999.90;999.90;;;;;;;3.44;100.00;97926.69;5093039;28;20038;-76
2023/03/03 02:41:50;;;;;;;1999.90;999.90;;;;;;;3.46;100.00;97929.94;5093181;28;20032;-76
2023/03/03 02:44:21;;;;;;;1999.90;999.90;;;;;;;3.44;100.00;97926.69;5092575;28;20472;-76
2023/03/03 02:46:48;;;;;;;1999.90;999.90;;;;;;;3.37;100.00;97915.22;5091918;28;20035;-76
2023/03/03 02:49:20;;;;;;;1999.90;999.90;;;;;;;3.43;100.00;97919.63;5088666;28;20447;-75
2023/03/03 02:51:46;;;;;;;1999.90;999.90;;;;;;;3.35;100.00;97917.38;5090808;28;20024;-74
2023/03/03 02:54:14;;;;;;;1999.90;999.90;;;;;;;3.32;100.00;97920.59;5090960;28;20035;-75
2023/03/03 02:56:40;;;;;;;1999.90;999.90;;;;;;;3.33;100.00;97924.91;5092719;28;20031;-78
2023/03/03 02:59:05;;;;;;;1999.90;999.90;;;;;;;3.30;100.00;97923.53;5090681;28;20388;-76
2023/03/03 03:01:35;;;;;;;1999.90;999.90;;;;;;;3.31;100.00;97921.63;5091340;28;20387;-75
2023/03/03 03:04:06;;;;;;;1999.90;999.90;;;;;;;3.32;100.00;97917.88;5090962;28;20465;-75
2023/03/03 03:06:31;;;;;;;1999.90;999.90;;;;;;;3.30;100.00;97926.22;5090823;28;20024;-75
2023/03/03 03:08:57;;;;;;;1999.90;999.90;;;;;;;3.35;100.00;97922.78;5090653;28;20036;-76
2023/03/03 03:11:22;;;;;;;1999.90;999.90;;;;;;;3.29;100.00;97921.09;5089958;28;20420;-75
2023/03/03 03:13:48;;;;;;;1999.90;999.90;;;;;;;3.27;100.00;97904.28;5090969;28;20070;-75
2023/03/03 03:16:13;;;;;;;1999.90;999.90;;;;;;;3.28;100.00;97914.03;5091793;28;20078;-75
2023/03/03 03:18:38;;;;;;;1999.90;999.90;;;;;;;3.21;100.00;97904.22;5092117;28;20061;-74
2023/03/03 03:21:12;;;;;;;1999.90;999.90;;;;;;;3.13;100.00;97910.03;5092437;28;20047;-74
2023/03/03 03:23:38;;;;;;;1999.90;999.90;;;;;;;3.17;100.00;97911.19;5093396;28;20451;-78
2023/03/03 03:26:04;;;;;;;1999.90;999.90;;;;;;;3.15;100.00;97915.22;5096691;28;20020;-76
2023/03/03 03:28:30;;;;;;;1999.90;999.90;;;;;;;3.19;100.00;97909.06;5096082;28;20036;-75
2023/03/03 03:30:56;;;;;;;1999.90;999.90;;;;;;;3.13;100.00;97912.75;5090984;28;20032;-76
2023/03/03 03:33:21;;;;;;;1999.90;999.90;;;;;;;3.13;100.00;97914.66;5090951;28;20457;-75
2023/03/03 03:35:47;;;;;;;1999.90;999.90;;;;;;;3.06;100.00;97912.13;5091547;28;20027;-74
2023/03/03 03:38:13;;;;;;;1999.90;999.90;;;;;;;3.10;100.00;97915.94;5111178;28;20028;-75
2023/03/03 03:40:39;;;;;;;1999.90;999.90;;;;;;;3.07;100.00;97904.84;5110964;28;20028;-75
2023/03/03 03:43:05;;;;;;;1999.90;999.90;;;;;;;3.16;100.00;97911.44;5104546;28;20528;-75
2023/03/03 03:45:30;;;;;;;1999.90;999.90;;;;;;;3.11;100.00;97908.66;5110872;28;20139;-76
2023/03/03 03:47:56;;;;;;;1999.90;999.90;;;;;;;3.19;100.00;97919.88;5098627;28;20043;-75
2023/03/03 03:50:22;;;;;;;1999.90;999.90;;;;;;;3.19;100.00;97909.06;5091824;28;20043;-76
2023/03/03 03:52:47;;;;;;;1999.90;999.90;;;;;;;3.31;100.00;97916.22;5090995;28;20031;-75
2023/03/03 03:55:13;;;;;;;1999.90;999.90;;;;;;;3.28;100.00;97909.44;5090599;28;20484;-76
2023/03/03 03:57:39;;;;;;;1999.90;999.90;;;;;;;3.32;100.00;97917.88;5089435;28;20022;-76
2023/03/03 04:00:06;;;;;;;1999.90;999.90;;;;;;;3.38;100.00;97916.88;5086783;28;20028;-75
2023/03/03 04:02:31;;;;;;;1999.90;999.90;;;;;;;3.41;100.00;97911.78;5081257;28;20036;-75
2023/03/03 04:04:56;;;;;;;1999.90;999.90;;;;;;;3.32;100.00;97901.66;5069974;28;20536;-75
2023/03/03 04:07:22;;;;;;;1999.90;999.90;;;;;;;3.43;100.00;97914.22;5081828;28;20071;-74
2023/03/03 04:09:47;;;;;;;1999.90;999.90;;;;;;;3.40;100.00;97912.03;5090225;28;20044;-75
2023/03/03 04:12:12;;;;;;;1999.90;999.90;;;;;;;3.39;100.00;97908.50;5090109;28;20530;-75
2023/03/03 04:14:38;;;;;;;1999.90;999.90;;;;;;;3.45;100.00;97912.09;5089128;28;20028;-75
2023/03/03 04:17:03;;;;;;;1999.90;999.90;;;;;;;3.34;100.00;97911.16;5089887;28;20035;-74
2023/03/03 04:19:29;;;;;;;1999.90;999.90;;;;;;;3.34;100.00;97907.63;5076802;28;20503;-74
2023/03/03 04:21:54;;;;;;;1999.90;999.90;;;;;;;3.32;100.00;97907.06;5071129;28;20404;-75
2023/03/03 04:24:19;;;;;;;1999.90;999.90;;;;;;;3.29;100.00;97910.28;5073388;28;20111;-75
2023/03/03 04:26:45;;;;;;;1999.90;999.90;;;;;;;3.27;100.00;97904.28;5084409;28;20405;-76
2023/03/03 04:29:10;;;;;;;1999.90;999.90;;;;;;;3.33;100.00;97920.31;5093115;28;20024;-75
2023/03/03 04:31:36;;;;;;;1999.90;999.90;;;;;;;3.36;100.00;97919.00;5092385;28;20032;-75
2023/03/03 04:34:01;;;;;;;1999.90;999.90;;;;;;;3.33;100.00;97908.69;5093837;28;20028;-75
2023/03/03 04:36:27;;;;;;;1999.90;999.90;;;;;;;3.31;100.00;97908.13;5093216;28;20024;-75
2023/03/03 04:38:52;;;;;;;1999.90;999.90;;;;;;;3.24;100.00;97905.59;5093822;28;20492;-76
2023/03/03 04:41:18;;;;;;;1999.90;999.90;;;;;;;3.31;100.00;97910.81;5093982;28;20097;-74
2023/03/03 04:43:43;;;;;;;1999.90;999.90;;;;;;;3.28;100.00;97905.94;5093413;28;20031;-75
2023/03/03 04:46:08;;;;;;;1999.90;999.90;;;;;;;3.31;100.00;97906.25;5093647;28;20035;-76
2023/03/03 04:48:34;;;;;;;1999.90;999.90;;;;;;;3.32;100.00;97904.38;5093374;28;20019;-75
2023/03/03 04:50:59;;;;;;;1999.90;999.90;;;;;;;3.14;100.00;97898.16;5093075;28;20036;-75
2023/03/03 04:53:25;;;;;;;1999.90;999.90;;;;;;;3.14;100.00;97900.88;5096657;28;20556;-77
2023/03/03 04:55:51;;;;;;;1999.90;999.90;;;;;;;3.19;100.00;97903.66;5113003;28;20019;-75
2023/03/03 04:58:18;;;;;;;1999.90;999.90;;;;;;;3.19;100.00;97897.44;5099653;28;20516;-76
2023/03/03 05:00:52;;;;;;;1999.90;999.90;;;;;;;3.14;100.00;97903.56;5081775;28;20035;-75
2023/03/03 05:03:18;;;;;;;1999.90;999.90;;;;;;;3.16;100.00;97900.63;5072805;28;20039;-75
2023/03/03 05:05:45;;;;;;;1999.90;999.90;;;;;;;3.20;100.00;97909.84;5072793;28;20033;-76
2023/03/03 05:08:11;;;;;;;1999.90;999.90;;;;;;;3.13;100.00;97899.22;5072893;28;20093;-75
2023/03/03 05:10:37;;;;;;;1999.90;999.90;;;;;;;3.08;100.00;97901.03;5073095;28;20107;-76
2023/03/03 05:13:03;;;;;;;1999.90;999.90;;;;;;;3.16;100.00;97897.94;5072790;28;20024;-75
2023/03/03 05:15:29;;;;;;;1999.90;999.90;;;;;;;3.07;100.00;97900.22;5073599;28;20474;-77
2023/03/03 05:17:55;;;;;;;1999.90;999.90;;;;;;;3.14;100.00;97903.56;5091966;28;20036;-75
2023/03/03 05:20:21;;;;;;;1999.90;999.90;;;;;;;3.05;100.00;97891.56;5091743;28;20127;-76
2023/03/03 05:22:46;;;;;;;1999.90;999.90;;;;;;;3.03;100.00;97895.59;5092897;28;20178;-76
2023/03/03 05:25:12;;;;;;;1999.90;999.90;;;;;;;3.10;100.00;97910.53;5098149;28;20020;-75
2023/03/03 05:27:37;;;;;;;1999.90;999.90;;;;;;;3.06;100.00;97898.63;5094964;28;20500;-75
2023/03/03 05:30:03;;;;;;;1999.90;999.90;;;;;;;3.06;100.00;97904.00;5094293;28;20030;-79
2023/03/03 05:32:29;;;;;;;1999.90;999.90;;;;;;;3.16;100.00;97903.34;5095196;28;20040;-75
2023/03/03 05:34:54;;;;;;;1999.90;999.90;;;;;;;3.11;100.00;97895.16;5095657;28;20027;-77
2023/03/03 05:37:20;;;;;;;1999.90;999.90;;;;;;;3.17;100.00;97905.78;5096381;28;20093;-79
2023/03/03 05:39:45;;;;;;;1999.90;999.90;;;;;;;3.11;100.00;97889.75;5094227;28;20061;-76
2023/03/03 05:42:12;;;;;;;1999.90;999.90;;;;;;;3.09;100.00;97903.53;5092330;28;20020;-76
2023/03/03 05:44:37;;;;;;;1999.90;999.90;;;;;;;3.09;100.00;97902.69;5092578;28;20095;-76
2023/03/03 05:47:03;;;;;;;1999.90;999.90;;;;;;;3.17;100.00;97913.06;5092404;28;20088;-80
2023/03/03 05:49:28;;;;;;;1999.90;999.90;;;;;;;3.27;100.00;97915.91;5093065;28;20532;-77
2023/03/03 05:51:53;;;;;;;1999.90;999.90;;;;;;;3.21;100.00;97912.34;5092837;28;20409;-77
2023/03/03 05:54:19;;;;;;;1999.90;999.90;;;;;;;3.15;100.00;97912.50;5093685;28;20164;-76
2023/03/03 05:56:46;;;;;;;1999.90;999.90;;;;;;;3.12;100.00;97915.72;5093185;28;20008;-75
2023/03/03 05:59:11;;;;;;;1999.90;999.90;;;;;;;3.28;100.00;97922.13;5092953;28;20036;-75
2023/03/03 06:01:36;;;;;;;1999.90;999.90;;;;;;;3.32;100.00;97934.09;5090118;28;20032;-75
2023/03/03 06:04:02;;;;;;;1999.90;999.90;;;;;;;3.31;100.00;97941.38;5092330;28;20543;-76
2023/03/03 06:06:28;;;;;;;1999.90;999.90;;;;;;;3.35;100.00;97936.31;5091755;28;20042;-75
2023/03/03 06:08:53;;;;;;;1999.90;999.90;;;;;;;3.36;100.00;97938.75;5091661;28;20044;-76
2023/03/03 06:11:18;;;;;;;1999.90;999.90;;;;;;;3.39;100.00;97930.13;5092020;28;20400;-76
2023/03/03 06:13:44;;;;;;;1999.90;999.90;;;;;;;3.51;100.00;97940.84;5091765;28;20047;-75
2023/03/03 06:16:09;;;;;;;1999.90;999.90;;;;;;;3.51;100.00;97946.25;5090284;28;20059;-75
2023/03/03 06:18:35;;;;;;;1999.90;999.90;;;;;;;3.40;100.00;97948.00;5090057;28;20032;-76
2023/03/03 06:21:04;;;;;;;1999.90;999.90;;;;;;;3.42;100.00;97945.03;5072238;28;20032;-73
2023/03/03 06:23:29;;;;;;;1999.90;999.90;;;;;;;3.58;100.00;97949.56;5090414;28;20032;-79
2023/03/03 06:25:54;;;;;;;1999.90;999.90;;;;;;;3.43;100.00;97947.50;5090865;28;20047;-75
2023/03/03 06:28:20;;;;;;;1999.90;999.90;;;;;;;3.50;100.00;97950.03;5088561;28;20035;-74
2023/03/03 06:30:45;;;;;;;1999.90;999.90;;;;;;;3.52;100.00;97958.69;5090874;28;20111;-75
2023/03/03 06:33:10;;;;;;;1999.90;999.90;;;;;;;3.56;100.00;97959.81;5090874;28;20024;-75
2023/03/03 06:35:36;;;;;;;1999.90;999.90;;;;;;;3.58;100.00;97963.09;5090702;28;20023;-75
2023/03/03 06:38:01;;;;;;;1999.90;999.90;;;;;;;3.67;100.00;97964.28;5090787;28;20070;-75
2023/03/03 06:40:27;;;;;;;1999.90;999.90;;;;;;;3.60;100.00;97963.69;5091217;28;20028;-75
2023/03/03 06:42:52;;;;;;;1999.90;999.90;;;;;;;3.72;100.00;97967.91;5090896;28;20039;-75
2023/03/03 06:45:18;;;;;;;1999.90;999.90;;;;;;;3.70;100.00;97975.44;5091044;28;20752;-75
2023/03/03 06:47:43;;;;;;;1999.90;999.90;;;;;;;3.73;100.00;97977.63;5090195;28;20082;-75
2023/03/03 06:50:10;;;;;;;1999.90;999.90;;;;;;;3.74;100.00;97968.47;5090617;28;20059;-76
2023/03/03 06:52:36;;;;;;;1999.90;999.90;;;;;;;3.78;100.00;97982.31;5090003;28;20016;-75
2023/03/03 06:55:11;;;;;;;1999.90;999.90;;;;;;;3.82;100.00;97982.63;5091520;28;20078;-75
2023/03/03 06:57:36;;;;;;;1999.90;999.90;;;;;;;3.75;100.00;97974.69;5091181;28;20055;-75
2023/03/03 07:00:24;;;;;;;1999.90;999.90;;;;;;;3.90;100.00;97984.88;5089812;28;20485;-76
2023/03/03 07:03:00;;;;;;;1999.90;999.90;;;;;;;3.94;100.00;97992.25;5089654;28;20443;-75
2023/03/03 07:05:27;;;;;;;1999.90;999.90;;;;;;;3.97;100.00;97988.22;5091391;28;20082;-74
2023/03/03 07:07:55;;;;;;;1999.90;999.90;;;;;;;3.88;100.00;97987.84;5090845;28;20055;-75
2023/03/03 07:10:27;;;;;;;1999.90;999.90;;;;;;;3.78;100.00;97983.13;5091090;28;20028;-74
2023/03/03 07:12:55;;;;;;;1999.90;999.90;;;;;;;3.90;100.00;97998.41;5090750;28;20027;-75
2023/03/03 07:15:27;;;;;;;1999.90;999.90;;;;;;;3.89;100.00;97994.88;5091039;28;20058;-74
2023/03/03 07:17:58;;;;;;;1999.90;999.90;;;;;;;3.96;100.00;98002.81;5090858;28;20028;-74
2023/03/03 07:20:31;;;;;;;1999.90;999.90;;;;;;;3.91;100.00;98000.88;5091009;28;20481;-75
2023/03/03 07:22:57;;;;;;;1999.90;999.90;;;;;;;3.91;100.00;97995.47;5090861;28;20042;-74
2023/03/03 07:25:31;;;;;;;1999.90;999.90;;;;;;;3.99;100.00;98011.25;5090800;28;20032;-75
2023/03/03 07:28:00;;;;;;;1999.90;999.90;;;;;;;3.96;100.00;98009.03;5090998;28;20031;-75
2023/03/03 07:30:27;;;;;;;1999.90;999.90;;;;;;;4.00;100.00;98012.88;5091073;28;20048;-74
2023/03/03 07:32:56;;;;;;;1999.90;999.90;;;;;;;3.94;100.00;98013.88;5090645;28;20024;-74
2023/03/03 07:35:43;;;;;;;1999.90;999.90;;;;;;;3.99;100.00;98015.81;5091016;28;20028;-75
2023/03/03 07:38:21;;;;;;;1999.90;999.90;;;;;;;4.11;100.00;98013.81;5092012;28;20054;-74
2023/03/03 07:40:52;;;;;;;1999.90;999.90;;;;;;;3.99;100.00;97984.19;5092129;28;20032;-76
2023/03/03 07:43:36;;;;;;;1999.90;999.90;;;;;;;4.28;100.00;98011.84;5095060;28;20024;-75
2023/03/03 07:46:20;;;;;;;1999.90;999.90;;;;;;;4.27;100.00;98021.88;5096905;28;20053;-75
2023/03/03 07:48:45;;;;;;;1999.90;999.90;;;;;;;4.30;100.00;97999.69;5094404;28;20020;-75
2023/03/03 07:51:24;;;;;;;1999.90;999.90;;;;;;;4.27;100.00;97997.50;5091210;28;20101;-75
2023/03/03 07:53:51;;;;;;;1999.90;999.90;;;;;;;4.37;100.00;98023.03;5090407;28;20538;-74
2023/03/03 07:56:43;;;;;;;1999.90;999.90;;;;;;;4.42;100.00;98010.38;5090987;28;20662;-75
2023/03/03 07:59:23;;;;;;;1999.90;999.90;;;;;;;4.48;100.00;98019.41;5092018;28;20578;-74
2023/03/03 08:01:55;;;;;;;1999.90;999.90;;;;;;;4.60;100.00;98025.47;5094698;28;20127;-75
2023/03/03 08:04:36;;;;;;;1999.90;999.90;;;;;;;4.51;100.00;98021.59;5094396;28;20111;-75
2023/03/03 08:07:02;;;;;;;1999.90;999.90;;;;;;;4.54;100.00;98027.28;5093615;28;20027;-74
2023/03/03 08:09:37;;;;;;;1999.90;999.90;;;;;;;4.63;100.00;98020.38;5094947;28;20040;-74
2023/03/03 08:12:18;;;;;;;1999.90;999.90;;;;;;;4.79;100.00;98018.63;5094387;28;20047;-74
2023/03/03 08:14:44;;;;;;;1999.90;999.90;;;;;;;4.82;100.00;98031.66;5094323;28;20111;-75
2023/03/03 08:17:21;;;;;;;1999.90;999.90;;;;;;;4.78;100.00;98019.69;5094347;28;20248;-75
2023/03/03 08:19:49;;;;;;;1999.90;999.90;;;;;;;4.78;100.00;98035.94;5094068;28;20051;-74
2023/03/03 08:22:18;;;;;;;1999.90;999.90;;;;;;;4.57;100.00;98028.69;5094161;28;20024;-74
2023/03/03 08:24:45;;;;;;;1999.90;999.90;;;;;;;4.66;100.00;98029.88;5094305;28;20107;-74
2023/03/03 08:27:10;;;;;;;1999.90;999.90;;;;;;;4.49;100.00;98032.66;5094551;28;20107;-75
2023/03/03 08:29:36;;;;;;;1999.90;999.90;;;;;;;4.53;100.00;98032.97;5093583;28;20131;-76
2023/03/03 08:32:01;;;;;;;1999.90;999.90;;;;;;;4.49;100.00;98026.44;5095824;28;20038;-75
2023/03/03 08:34:26;;;;;;;1999.90;999.90;;;;;;;4.46;100.00;98037.75;5095393;28;20026;-74
2023/03/03 08:36:52;;;;;;;1999.90;999.90;;;;;;;4.52;100.00;98036.75;5094350;28;20400;-75
2023/03/03 08:39:17;;;;;;;1999.90;999.90;;;;;;;4.48;100.00;98033.72;5094487;28;20020;-75
2023/03/03 08:41:43;;;;;;;1999.90;999.90;;;;;;;4.61;100.00;98036.03;5092650;28;20036;-75
2023/03/03 08:44:09;;;;;;;1999.90;999.90;;;;;;;4.65;100.00;98028.22;5094210;28;20071;-75
2023/03/03 08:46:35;;;;;;;1999.90;999.90;;;;;;;4.73;100.00;98028.56;5094082;28;20028;-75
2023/03/03 08:49:02;;;;;;;1999.90;999.90;;;;;;;4.82;100.00;98037.88;5094113;28;20111;-74
2023/03/03 08:51:27;;;;;;;1999.90;999.90;;;;;;;4.86;100.00;98044.41;5093823;28;20028;-75
2023/03/03 08:53:53;;;;;;;1999.90;999.90;;;;;;;5.01;100.00;98041.03;5092005;28;20028;-74
2023/03/03 08:56:18;;;;;;;1999.90;999.90;;;;;;;5.17;100.00;98031.16;5093682;28;20431;-75
2023/03/03 08:58:47;;;;;;;1999.90;999.90;;;;;;;5.27;100.00;98040.19;5093236;28;20422;-75
2023/03/03 09:01:18;;;;;;;1999.90;999.90;;;;;;;5.43;100.00;98032.16;5093395;28;20115;-75
2023/03/03 09:03:43;;;;;;;1999.90;999.90;;;;;;;5.49;100.00;98040.06;5093417;28;20027;-75
2023/03/03 09:06:09;;;;;;;1999.90;999.90;;;;;;;5.65;100.00;98041.81;5093405;28;20024;-74
2023/03/03 09:08:35;;;;;;;1999.90;999.90;;;;;;;5.57;100.00;98036.88;5090684;28;20412;-75
2023/03/03 09:11:01;;;;;;;1999.90;999.90;;;;;;;5.59;100.00;98039.31;5093736;28;20389;-74
2023/03/03 09:13:29;;;;;;;1999.90;999.90;;;;;;;5.66;100.00;98031.78;5093084;28;20409;-75
2023/03/03 09:15:57;;;;;;;1999.90;999.90;;;;;;;5.76;100.00;98053.56;5093193;28;20028;-75
2023/03/03 09:18:34;;;;;;;1999.90;999.90;;;;;;;5.81;100.00;98050.88;5093156;28;20024;-75
2023/03/03 09:20:59;;;;;;;1999.90;999.90;;;;;;;5.91;100.00;98054.50;5093111;28;20035;-75
2023/03/03 09:23:32;;;;;;;1999.90;999.90;;;;;;;5.89;100.00;98062.06;5092700;28;20028;-75
2023/03/03 09:26:14;;;;;;;1999.90;999.90;;;;;;;5.87;100.00;98063.41;5092906;28;20032;-75
2023/03/03 09:28:39;;;;;;;1999.90;999.90;;;;;;;6.09;100.00;98055.94;5093179;28;20085;-75
2023/03/03 09:31:21;;;;;;;1999.90;999.90;;;;;;;6.17;100.00;98060.06;5093129;28;20028;-75
2023/03/03 09:33:48;;;;;;;1999.90;999.90;;;;;;;6.18;100.00;98054.34;5074353;28;20033;-76
2023/03/03 09:36:36;;;;;;;1999.90;999.90;;;;;;;6.03;100.00;98061.59;5092768;28;20030;-75
2023/03/03 09:39:16;;;;;;;1999.90;999.90;;;;;;;6.23;100.00;98059.00;5092855;28;20028;-74
2023/03/03 09:41:47;;;;;;;1999.90;999.90;;;;;;;6.37;100.00;98066.38;5092835;28;20039;-74
2023/03/03 09:44:18;;;;;;;1999.90;999.90;;;;;;;6.46;100.00;98074.84;5092550;28;20496;-75
2023/03/03 09:47:01;;;;;;;1999.90;999.90;;;;;;;6.47;100.00;98071.88;5092709;28;20123;-75
2023/03/03 09:49:33;;;;;;;1999.90;999.90;;;;;;;6.53;100.00;98069.16;5091933;28;20442;-75
2023/03/03 09:51:59;;;;;;;1999.90;999.90;;;;;;;6.48;100.00;98075.41;5095616;28;20031;-78
2023/03/03 09:54:55;;;;;;;1999.90;999.90;;;;;;;6.47;100.00;98081.91;5097853;28;20020;-75
2023/03/03 09:57:26;;;;;;;1999.90;999.90;;;;;;;6.55;100.00;98072.44;5092107;28;20036;-75
2023/03/03 10:00:15;;;;;;;1999.90;999.90;;;;;;;6.38;100.00;98073.47;5092266;28;20085;-74
2023/03/03 10:03:03;;;;;;;1999.90;999.90;;;;;;;6.30;100.00;98068.53;5092166;28;20024;-75
2023/03/03 10:05:40;;;;;;;1999.90;999.90;;;;;;;6.41;100.00;98080.25;5092328;28;20024;-78
2023/03/03 10:08:11;;;;;;;1999.90;999.90;;;;;;;6.54;100.00;98077.06;5092219;28;20048;-75
2023/03/03 10:11:00;;;;;;;1999.90;999.90;;;;;;;6.92;100.00;98073.09;5092603;28;20081;-75
2023/03/03 10:13:44;;;;;;;1999.90;999.90;;;;;;;7.11;100.00;98079.63;5091837;28;20081;-75
2023/03/03 10:16:18;;;;;;;1999.90;999.90;;;;;;;6.92;100.00;98073.09;5091909;28;20459;-75
2023/03/03 10:18:56;;;;;;;1999.90;999.90;;;;;;;6.89;100.00;98079.06;5091928;28;20036;-75
2023/03/03 10:21:22;;;;;;;1999.90;999.90;;;;;;;6.96;100.00;98082.31;5091572;28;20279;-75
2023/03/03 10:23:53;;;;;;;1999.90;999.90;;;;;;;6.95;100.00;98069.84;5091981;28;20020;-75
2023/03/03 10:26:25;;;;;;;1999.90;999.90;;;;;;;6.82;100.00;98076.59;5091853;28;20039;-75
2023/03/03 10:29:15;;;;;;;1999.90;999.90;;;;;;;6.96;100.00;98079.59;5092277;28;20028;-75
2023/03/03 10:32:28;;;;;;;1999.90;999.90;;;;;;;6.89;100.00;98085.31;5091904;28;20495;-75
2023/03/03 10:35:07;;;;;;;1999.90;999.90;;;;;;;6.91;100.00;98085.88;5082660;28;20040;-74
2023/03/03 10:37:45;;;;;;;1999.90;999.90;;;;;;;6.73;100.00;98088.25;5091644;28;20032;-76
2023/03/03 10:40:24;;;;;;;1999.90;999.90;;;;;;;6.59;100.00;98084.41;5091837;28;20016;-79
2023/03/03 10:43:11;;;;;;;1999.90;999.90;;;;;;;6.40;100.00;98082.16;5091411;28;20062;-75
2023/03/03 10:45:43;;;;;;;1999.90;999.90;;;;;;;6.38;100.00;98084.34;5091737;28;20043;-75
2023/03/03 10:48:22;;;;;;;1999.90;999.90;;;;;;;6.34;100.00;98077.78;5091489;28;20027;-75
2023/03/03 10:51:01;;;;;;;1999.90;999.90;;;;;;;6.17;100.00;98088.00;5091433;28;20110;-75
2023/03/03 10:54:05;;;;;;;1999.90;999.90;;;;;;;6.18;100.00;98078.78;5091279;28;20056;-75
2023/03/03 10:56:51;;;;;;;1999.90;999.90;;;;;;;5.96;100.00;98072.69;5091915;28;20101;-75
2023/03/03 10:59:32;;;;;;;1999.90;999.90;;;;;;;6.16;100.00;98078.25;5091327;28;20172;-75
2023/03/03 11:02:05;;;;;;;1999.90;999.90;;;;;;;6.18;100.00;98072.53;5091094;28;20079;-75
2023/03/03 11:04:51;;;;;;;1999.90;999.90;;;;;;;6.21;100.00;98075.53;5091326;28;20024;-75
2023/03/03 11:07:30;;;;;;;1999.90;999.90;;;;;;;6.36;100.00;98072.06;5092008;28;20496;-74